SKW5266 KDSM-KDEN
Flight info
| Callsign | SKW5266 |
|---|---|
| Flight time | N/A |
| Altitude | 30000 |
| Route | BRWRY LAWGR4 |
| Aircraft | E75L/M-SDE3GILORVW/S |
Departure
| Time | 2026-05-04 02:17 |
|---|---|
| Airport | Des Moines International Airport (KDSM) |
Arrival
| Time | N/A |
|---|---|
| Airport | Denver International Airport (KDEN) |
| Time | Latitude | Longitude | Altitude | Speed | Heading |
|---|---|---|---|---|---|
| 2026-05-04 02:03 | 41.53419 | -93.65089 | 923 ft | 0 kts | 88° |
| 2026-05-04 02:12 | 41.53419 | -93.65099 | 925 ft | 3 kts | 86° |
| 2026-05-04 02:12 | 41.53415 | -93.65125 | 923 ft | 3 kts | 70° |
| 2026-05-04 02:13 | 41.53405 | -93.65146 | 925 ft | 3 kts | 33° |
| 2026-05-04 02:13 | 41.53392 | -93.65151 | 922 ft | 1 kts | 354° |
| 2026-05-04 02:13 | 41.53387 | -93.65150 | 922 ft | 0 kts | 354° |
| 2026-05-04 02:15 | 41.53409 | -93.65152 | 925 ft | 7 kts | 359° |
| 2026-05-04 02:15 | 41.53493 | -93.65164 | 921 ft | 17 kts | 343° |
| 2026-05-04 02:16 | 41.53593 | -93.65181 | 921 ft | 11 kts | 50° |
| 2026-05-04 02:16 | 41.53639 | -93.65095 | 925 ft | 12 kts | 54° |
| 2026-05-04 02:16 | 41.53694 | -93.65020 | 927 ft | 12 kts | 18° |
| 2026-05-04 02:16 | 41.53767 | -93.65068 | 924 ft | 13 kts | 298° |
| 2026-05-04 02:17 | 41.53729 | -93.65185 | 923 ft | 28 kts | 233° |
| 2026-05-04 02:17 | 41.53458 | -93.65679 | 915 ft | 103 kts | 233° |
| 2026-05-04 02:17 | 41.52899 | -93.66685 | 992 ft | 158 kts | 233° |
| 2026-05-04 02:17 | 41.52202 | -93.67926 | 1650 ft | 177 kts | 237° |
| 2026-05-04 02:18 | 41.51771 | -93.69471 | 2334 ft | 184 kts | 266° |
| 2026-05-04 02:18 | 41.51686 | -93.71207 | 3066 ft | 191 kts | 266° |
| 2026-05-04 02:18 | 41.51564 | -93.73001 | 3791 ft | 197 kts | 265° |
| 2026-05-04 02:18 | 41.51429 | -93.74855 | 4454 ft | 204 kts | 265° |
| 2026-05-04 02:19 | 41.51284 | -93.76778 | 5139 ft | 215 kts | 265° |
| 2026-05-04 02:19 | 41.51125 | -93.78814 | 5937 ft | 227 kts | 265° |
| 2026-05-04 02:19 | 41.50958 | -93.80915 | 6750 ft | 235 kts | 265° |
| 2026-05-04 02:19 | 41.50779 | -93.83111 | 7584 ft | 241 kts | 265° |
| 2026-05-04 02:20 | 41.50596 | -93.85349 | 8443 ft | 244 kts | 265° |
| 2026-05-04 02:20 | 41.50410 | -93.87612 | 9340 ft | 247 kts | 266° |
| 2026-05-04 02:20 | 41.50221 | -93.89897 | 10200 ft | 249 kts | 266° |
| 2026-05-04 02:20 | 41.50029 | -93.92203 | 11049 ft | 251 kts | 266° |
| 2026-05-04 02:21 | 41.49835 | -93.94530 | 11841 ft | 258 kts | 266° |
| 2026-05-04 02:21 | 41.49638 | -93.96973 | 12436 ft | 271 kts | 266° |
| 2026-05-04 02:21 | 41.49431 | -93.99533 | 13080 ft | 284 kts | 266° |
| 2026-05-04 02:21 | 41.49217 | -94.02170 | 13747 ft | 295 kts | 266° |
| 2026-05-04 02:22 | 41.48999 | -94.04863 | 14690 ft | 295 kts | 266° |
| 2026-05-04 02:22 | 41.48766 | -94.07594 | 15580 ft | 298 kts | 266° |
| 2026-05-04 02:22 | 41.48532 | -94.10355 | 16426 ft | 301 kts | 266° |
| 2026-05-04 02:22 | 41.48298 | -94.13147 | 17230 ft | 305 kts | 266° |
| 2026-05-04 02:23 | 41.48061 | -94.15975 | 18027 ft | 309 kts | 267° |
| 2026-05-04 02:23 | 41.47822 | -94.18838 | 18748 ft | 313 kts | 267° |
| 2026-05-04 02:23 | 41.47579 | -94.21740 | 19408 ft | 317 kts | 266° |
| 2026-05-04 02:23 | 41.47336 | -94.24638 | 20073 ft | 321 kts | 266° |
| 2026-05-04 02:24 | 41.47088 | -94.27611 | 20720 ft | 324 kts | 266° |
| 2026-05-04 02:24 | 41.46838 | -94.30615 | 21335 ft | 328 kts | 267° |
| 2026-05-04 02:24 | 41.46585 | -94.33650 | 21942 ft | 331 kts | 267° |
| 2026-05-04 02:24 | 41.46328 | -94.36719 | 22542 ft | 335 kts | 267° |
| 2026-05-04 02:25 | 41.46069 | -94.39823 | 23159 ft | 338 kts | 267° |
| 2026-05-04 02:25 | 41.45807 | -94.42953 | 23719 ft | 341 kts | 267° |
| 2026-05-04 02:25 | 41.45542 | -94.46108 | 24283 ft | 343 kts | 267° |
| 2026-05-04 02:25 | 41.45274 | -94.49281 | 24856 ft | 346 kts | 267° |
| 2026-05-04 02:26 | 41.45008 | -94.52430 | 25403 ft | 348 kts | 267° |
| 2026-05-04 02:26 | 41.44737 | -94.55648 | 25935 ft | 350 kts | 267° |
| 2026-05-04 02:26 | 41.44462 | -94.58879 | 26479 ft | 351 kts | 267° |
| 2026-05-04 02:26 | 41.44189 | -94.62123 | 26968 ft | 353 kts | 267° |
| 2026-05-04 02:27 | 41.43912 | -94.65386 | 27455 ft | 355 kts | 267° |
| 2026-05-04 02:27 | 41.43633 | -94.68668 | 27929 ft | 357 kts | 267° |
| 2026-05-04 02:27 | 41.43352 | -94.71970 | 28392 ft | 360 kts | 267° |
| 2026-05-04 02:27 | 41.43071 | -94.75288 | 28838 ft | 362 kts | 267° |
| 2026-05-04 02:28 | 41.42783 | -94.78627 | 29262 ft | 364 kts | 267° |
| 2026-05-04 02:28 | 41.42495 | -94.81989 | 29672 ft | 366 kts | 267° |
| 2026-05-04 02:28 | 41.42208 | -94.85323 | 29957 ft | 366 kts | 267° |
| 2026-05-04 02:28 | 41.41920 | -94.88741 | 29961 ft | 377 kts | 267° |
| 2026-05-04 02:29 | 41.41398 | -94.94954 | 30016 ft | 395 kts | 267° |
| 2026-05-04 02:29 | 41.40777 | -95.02291 | 29948 ft | 402 kts | 267° |
| 2026-05-04 02:30 | 41.40148 | -95.09678 | 29924 ft | 405 kts | 267° |
| 2026-05-04 02:30 | 41.39511 | -95.17147 | 29926 ft | 406 kts | 267° |
| 2026-05-04 02:31 | 41.38869 | -95.24622 | 29922 ft | 406 kts | 267° |
| 2026-05-04 02:31 | 41.38222 | -95.32101 | 29925 ft | 407 kts | 267° |
| 2026-05-04 02:32 | 41.37574 | -95.39531 | 29923 ft | 407 kts | 266° |
| 2026-05-04 02:32 | 41.36917 | -95.47007 | 29927 ft | 406 kts | 266° |
| 2026-05-04 02:33 | 41.36253 | -95.54483 | 29925 ft | 407 kts | 266° |
| 2026-05-04 02:33 | 41.35584 | -95.61958 | 29924 ft | 407 kts | 266° |
| 2026-05-04 02:34 | 41.34910 | -95.69432 | 29934 ft | 407 kts | 266° |
| 2026-05-04 02:34 | 41.34236 | -95.76815 | 29939 ft | 403 kts | 266° |
| 2026-05-04 02:35 | 41.33561 | -95.84225 | 29934 ft | 404 kts | 266° |
| 2026-05-04 02:35 | 41.32882 | -95.91646 | 29931 ft | 404 kts | 266° |
| 2026-05-04 02:36 | 41.32198 | -95.99059 | 29935 ft | 404 kts | 266° |
| 2026-05-04 02:36 | 41.31507 | -96.06428 | 29941 ft | 404 kts | 266° |
| 2026-05-04 02:37 | 41.30814 | -96.13846 | 29939 ft | 404 kts | 266° |
| 2026-05-04 02:37 | 41.30115 | -96.21262 | 29942 ft | 404 kts | 266° |
| 2026-05-04 02:38 | 41.29406 | -96.28678 | 29937 ft | 404 kts | 266° |
| 2026-05-04 02:38 | 41.28702 | -96.36039 | 29935 ft | 404 kts | 266° |
| 2026-05-04 02:39 | 41.27985 | -96.43457 | 29938 ft | 404 kts | 266° |
| 2026-05-04 02:39 | 41.27271 | -96.50853 | 29928 ft | 402 kts | 266° |
| 2026-05-04 02:40 | 41.26552 | -96.58225 | 29940 ft | 403 kts | 266° |
| 2026-05-04 02:40 | 41.25828 | -96.65554 | 29945 ft | 403 kts | 266° |
| 2026-05-04 02:41 | 41.25096 | -96.72926 | 29941 ft | 403 kts | 266° |
| 2026-05-04 02:41 | 41.24354 | -96.80304 | 29942 ft | 403 kts | 266° |
| 2026-05-04 02:42 | 41.23623 | -96.87685 | 29946 ft | 403 kts | 266° |
| 2026-05-04 02:42 | 41.22879 | -96.95017 | 29942 ft | 403 kts | 266° |
| 2026-05-04 02:43 | 41.22135 | -97.02404 | 29949 ft | 403 kts | 266° |
| 2026-05-04 02:43 | 41.21378 | -97.09785 | 29949 ft | 404 kts | 266° |
| 2026-05-04 02:44 | 41.20614 | -97.17171 | 29948 ft | 404 kts | 266° |
| 2026-05-04 02:44 | 41.19848 | -97.24550 | 29953 ft | 404 kts | 266° |
| 2026-05-04 02:45 | 41.19088 | -97.31886 | 29950 ft | 404 kts | 265° |
| 2026-05-04 02:45 | 41.18307 | -97.39267 | 29947 ft | 404 kts | 265° |
| 2026-05-04 02:46 | 41.17533 | -97.46651 | 29947 ft | 404 kts | 265° |
| 2026-05-04 02:46 | 41.16756 | -97.54036 | 29948 ft | 404 kts | 265° |
| 2026-05-04 02:47 | 41.15970 | -97.61361 | 29969 ft | 403 kts | 265° |
| 2026-05-04 02:47 | 41.15173 | -97.68724 | 29947 ft | 403 kts | 265° |
| 2026-05-04 02:48 | 41.14378 | -97.76085 | 29950 ft | 403 kts | 265° |
| 2026-05-04 02:48 | 41.13574 | -97.83447 | 29952 ft | 403 kts | 265° |
| 2026-05-04 02:49 | 41.12766 | -97.90758 | 29950 ft | 403 kts | 265° |
| 2026-05-04 02:49 | 41.11943 | -97.98119 | 29943 ft | 402 kts | 266° |
| 2026-05-04 02:50 | 41.11143 | -98.05457 | 29942 ft | 402 kts | 265° |
| 2026-05-04 02:50 | 41.10297 | -98.12792 | 29952 ft | 402 kts | 265° |
| 2026-05-04 02:51 | 41.09487 | -98.20082 | 29951 ft | 403 kts | 265° |
| 2026-05-04 02:51 | 41.08646 | -98.27424 | 29952 ft | 403 kts | 265° |
| 2026-05-04 02:52 | 41.07835 | -98.34763 | 29931 ft | 402 kts | 265° |
| 2026-05-04 02:52 | 41.07013 | -98.42107 | 29955 ft | 403 kts | 265° |
| 2026-05-04 02:53 | 41.06184 | -98.49398 | 29951 ft | 403 kts | 265° |
| 2026-05-04 02:53 | 41.05332 | -98.56745 | 29954 ft | 403 kts | 265° |
| 2026-05-04 02:54 | 41.04488 | -98.64092 | 29963 ft | 403 kts | 265° |
| 2026-05-04 02:54 | 41.03617 | -98.71431 | 29971 ft | 403 kts | 265° |
| 2026-05-04 02:55 | 41.02333 | -98.82433 | 29947 ft | 405 kts | 265° |
| 2026-05-04 02:56 | 41.01464 | -98.89795 | 29937 ft | 405 kts | 265° |
| 2026-05-04 02:56 | 41.00587 | -98.97152 | 29939 ft | 405 kts | 265° |
| 2026-05-04 02:57 | 40.99691 | -99.04502 | 29939 ft | 405 kts | 265° |
| 2026-05-04 02:57 | 40.98786 | -99.11811 | 29942 ft | 406 kts | 265° |
| 2026-05-04 02:58 | 40.97905 | -99.19205 | 29922 ft | 408 kts | 265° |
| 2026-05-04 02:58 | 40.97010 | -99.26605 | 29938 ft | 407 kts | 264° |
| 2026-05-04 02:59 | 40.96089 | -99.34011 | 29932 ft | 408 kts | 265° |
| 2026-05-04 02:59 | 40.95175 | -99.41410 | 29935 ft | 408 kts | 264° |
| 2026-05-04 03:00 | 40.94268 | -99.48762 | 29950 ft | 408 kts | 265° |
| 2026-05-04 03:00 | 40.93363 | -99.56176 | 29943 ft | 408 kts | 264° |
| 2026-05-04 03:01 | 40.92438 | -99.63588 | 29947 ft | 409 kts | 264° |
| 2026-05-04 03:01 | 40.91511 | -99.71000 | 29949 ft | 409 kts | 264° |
| 2026-05-04 03:02 | 40.90566 | -99.78354 | 29946 ft | 409 kts | 264° |
| 2026-05-04 03:02 | 40.89613 | -99.85761 | 29958 ft | 410 kts | 264° |
| 2026-05-04 03:03 | 40.88658 | -99.93221 | 29935 ft | 412 kts | 264° |
| 2026-05-04 03:03 | 40.87707 | -100.00690 | 29935 ft | 412 kts | 264° |
| 2026-05-04 03:04 | 40.86771 | -100.08112 | 29928 ft | 412 kts | 264° |
| 2026-05-04 03:04 | 40.85817 | -100.15578 | 29924 ft | 412 kts | 264° |
| 2026-05-04 03:05 | 40.84850 | -100.23049 | 29949 ft | 416 kts | 264° |
| 2026-05-04 03:05 | 40.83870 | -100.30593 | 29918 ft | 416 kts | 264° |
| 2026-05-04 03:06 | 40.82884 | -100.38078 | 29917 ft | 416 kts | 264° |
| 2026-05-04 03:06 | 40.81884 | -100.45609 | 29922 ft | 416 kts | 264° |
| 2026-05-04 03:07 | 40.80876 | -100.53140 | 29914 ft | 417 kts | 264° |
| 2026-05-04 03:07 | 40.79860 | -100.60681 | 29936 ft | 420 kts | 263° |
| 2026-05-04 03:08 | 40.78646 | -100.68201 | 29923 ft | 412 kts | 259° |
| 2026-05-04 03:08 | 40.77234 | -100.75451 | 29926 ft | 416 kts | 260° |
| 2026-05-04 03:09 | 40.75865 | -100.82927 | 29913 ft | 421 kts | 261° |
| 2026-05-04 03:09 | 40.74534 | -100.90468 | 29920 ft | 422 kts | 261° |
| 2026-05-04 03:10 | 40.73214 | -100.98019 | 29917 ft | 423 kts | 261° |
| 2026-05-04 03:10 | 40.71904 | -101.05521 | 29921 ft | 423 kts | 261° |
| 2026-05-04 03:11 | 40.70583 | -101.13084 | 29918 ft | 423 kts | 261° |
| 2026-05-04 03:11 | 40.69263 | -101.20635 | 29920 ft | 423 kts | 261° |
| 2026-05-04 03:12 | 40.67939 | -101.28190 | 29926 ft | 423 kts | 261° |
| 2026-05-04 03:12 | 40.66611 | -101.35743 | 29935 ft | 424 kts | 261° |
| 2026-05-04 03:13 | 40.65286 | -101.43245 | 29941 ft | 424 kts | 261° |
| 2026-05-04 03:13 | 40.63948 | -101.50797 | 29952 ft | 423 kts | 261° |
| 2026-05-04 03:14 | 40.62605 | -101.58341 | 29957 ft | 423 kts | 261° |
| 2026-05-04 03:14 | 40.61262 | -101.65882 | 29967 ft | 423 kts | 261° |
| 2026-05-04 03:14 | 0.00000 | 0.00000 | 1059 ft | 0 kts | 355° |